Time;durP1;ratioP1;P1;durP2;ratioP2;P2;SDS_P1;SDS_P2;PMS_P1;PMS_P2;Temp;Humidity;BMP_temperature;BMP_pressure;BME280_temperature;BME280_humidity;BME280_pressure;Samples;Min_cycle;Max_cycle;Signal;HPM_P1;HPM_P2
2020/12/07 00:02:14;;;;;;;14.00;11.60;;;;;;;;;;5052779;28;20220;-60
2020/12/07 00:04:39;;;;;;;16.73;11.90;;;;;;;;;;5036987;28;20293;-61
2020/12/07 00:07:04;;;;;;;14.50;12.53;;;;;;;;;;5044541;28;20267;-60
2020/12/07 00:09:30;;;;;;;12.60;11.30;;;;;;;;;;5056622;28;20220;-60
2020/12/07 00:11:55;;;;;;;13.10;11.73;;;;;;;;;;5057030;28;20303;-59
2020/12/07 00:14:21;;;;;;;13.83;11.47;;;;;;;;;;5056711;28;20754;-61
2020/12/07 00:16:46;;;;;;;16.50;13.10;;;;;;;;;;5038902;28;20261;-59
2020/12/07 00:19:11;;;;;;;14.30;12.80;;;;;;;;;;5036721;28;20251;-60
2020/12/07 00:21:37;;;;;;;13.00;11.70;;;;;;;;;;5036758;28;20219;-60
2020/12/07 00:24:02;;;;;;;13.40;10.90;;;;;;;;;;5049069;28;20223;-60
2020/12/07 00:26:27;;;;;;;17.10;11.87;;;;;;;;;;5056223;28;20231;-61
2020/12/07 00:28:58;;;;;;;14.00;12.23;;;;;;;;;;5056947;28;20311;-59
2020/12/07 00:31:23;;;;;;;16.27;12.00;;;;;;;;;;5056169;28;20215;-60
2020/12/07 00:33:48;;;;;;;17.07;11.87;;;;;;;;;;5037925;28;20925;-61
2020/12/07 00:36:14;;;;;;;14.03;12.53;;;;;;;;;;5036168;28;20311;-60
2020/12/07 00:38:39;;;;;;;16.30;12.87;;;;;;;;;;5036478;28;20225;-61
2020/12/07 00:41:04;;;;;;;16.60;13.60;;;;;;;;;;5036549;28;20347;-61
2020/12/07 00:43:29;;;;;;;21.40;12.93;;;;;;;;;;5035943;28;20228;-61
2020/12/07 00:45:56;;;;;;;13.63;12.00;;;;;;;;;;5036352;28;20717;-60
2020/12/07 00:48:22;;;;;;;13.67;11.87;;;;;;;;;;5035655;28;20283;-60
2020/12/07 00:50:47;;;;;;;12.93;11.50;;;;;;;;;;5036335;28;20583;-60
2020/12/07 00:53:12;;;;;;;13.77;11.53;;;;;;;;;;5035778;28;20226;-61
2020/12/07 00:55:37;;;;;;;16.20;12.23;;;;;;;;;;5036392;28;20347;-60
2020/12/07 00:58:03;;;;;;;14.23;11.90;;;;;;;;;;5036137;28;20642;-60
2020/12/07 01:00:28;;;;;;;11.80;10.60;;;;;;;;;;5035946;28;20309;-60
2020/12/07 01:02:53;;;;;;;13.97;11.20;;;;;;;;;;5036013;28;20229;-60
2020/12/07 01:05:18;;;;;;;15.47;13.43;;;;;;;;;;5035605;28;20225;-60
2020/12/07 01:07:44;;;;;;;15.60;12.00;;;;;;;;;;5051885;28;20227;-60
2020/12/07 01:10:10;;;;;;;13.60;11.90;;;;;;;;;;5055353;28;20736;-61
2020/12/07 01:12:35;;;;;;;13.30;11.40;;;;;;;;;;5054917;28;20469;-60
2020/12/07 01:15:00;;;;;;;15.00;11.67;;;;;;;;;;5055645;28;20227;-60
2020/12/07 01:17:25;;;;;;;12.80;11.00;;;;;;;;;;5055247;28;20225;-60
2020/12/07 01:19:52;;;;;;;14.17;11.87;;;;;;;;;;5055865;28;20329;-60
2020/12/07 01:22:17;;;;;;;13.10;11.67;;;;;;;;;;5055117;28;20561;-60
2020/12/07 01:24:43;;;;;;;12.17;10.70;;;;;;;;;;5037864;28;20437;-60
2020/12/07 01:27:08;;;;;;;13.23;11.03;;;;;;;;;;5035743;28;20317;-60
2020/12/07 01:29:34;;;;;;;12.17;10.53;;;;;;;;;;5035299;28;20225;-60
2020/12/07 01:31:59;;;;;;;12.77;11.60;;;;;;;;;;5046398;28;20557;-60
2020/12/07 01:34:25;;;;;;;13.10;11.23;;;;;;;;;;5054766;28;20435;-60
2020/12/07 01:36:50;;;;;;;13.03;11.03;;;;;;;;;;5054466;28;20221;-60
2020/12/07 01:39:15;;;;;;;14.60;12.30;;;;;;;;;;5054992;28;20307;-60
2020/12/07 01:41:40;;;;;;;13.17;11.03;;;;;;;;;;5055535;28;20706;-60
2020/12/07 01:44:06;;;;;;;12.07;10.50;;;;;;;;;;5055576;28;20224;-60
2020/12/07 01:46:31;;;;;;;13.60;10.87;;;;;;;;;;5055323;28;20377;-60
2020/12/07 01:48:57;;;;;;;16.20;11.30;;;;;;;;;;5055353;28;20613;-61
2020/12/07 01:51:23;;;;;;;15.67;11.90;;;;;;;;;;5054905;28;20580;-61
2020/12/07 01:53:49;;;;;;;14.33;12.60;;;;;;;;;;5055174;28;20224;-60
2020/12/07 01:56:26;;;;;;;14.53;10.60;;;;;;;;;;5054593;28;20913;-60
2020/12/07 01:58:51;;;;;;;14.70;11.73;;;;;;;;;;5054576;28;20215;-60
2020/12/07 02:01:17;;;;;;;13.37;11.50;;;;;;;;;;5054148;28;20810;-60
2020/12/07 02:03:42;;;;;;;14.00;11.83;;;;;;;;;;5054613;28;20235;-60
2020/12/07 02:06:07;;;;;;;13.70;11.57;;;;;;;;;;5052310;28;20609;-60
2020/12/07 02:08:32;;;;;;;13.67;11.97;;;;;;;;;;5034157;28;20300;-60
2020/12/07 02:10:58;;;;;;;13.07;11.60;;;;;;;;;;5033802;28;20698;-59
2020/12/07 02:13:24;;;;;;;12.93;11.57;;;;;;;;;;5034529;28;20305;-60
2020/12/07 02:15:49;;;;;;;16.37;12.77;;;;;;;;;;5033920;28;20225;-61
2020/12/07 02:18:14;;;;;;;14.47;12.30;;;;;;;;;;5034617;28;20496;-60
2020/12/07 02:20:45;;;;;;;15.50;13.30;;;;;;;;;;5034355;28;20314;-60
2020/12/07 02:23:11;;;;;;;14.87;13.30;;;;;;;;;;5039928;28;20221;-60
2020/12/07 02:25:36;;;;;;;16.23;13.70;;;;;;;;;;5054077;28;20460;-60
2020/12/07 02:28:01;;;;;;;13.70;11.97;;;;;;;;;;5054889;28;20218;-60
2020/12/07 02:30:26;;;;;;;15.80;12.00;;;;;;;;;;5053911;28;20311;-60
2020/12/07 02:32:52;;;;;;;16.80;13.90;;;;;;;;;;5054813;28;20231;-59
2020/12/07 02:35:18;;;;;;;15.00;12.13;;;;;;;;;;5054203;28;20300;-60
2020/12/07 02:37:44;;;;;;;13.70;12.30;;;;;;;;;;5054753;28;20217;-60
2020/12/07 02:40:10;;;;;;;15.10;11.93;;;;;;;;;;5054574;28;20502;-60
2020/12/07 02:42:37;;;;;;;13.53;12.07;;;;;;;;;;5054291;28;20918;-60
2020/12/07 02:45:07;;;;;;;15.27;13.30;;;;;;;;;;5054670;28;20228;-60
2020/12/07 02:47:33;;;;;;;13.87;12.37;;;;;;;;;;5054379;28;20577;-60
2020/12/07 02:49:58;;;;;;;13.40;11.03;;;;;;;;;;5054741;28;20450;-60
2020/12/07 02:52:27;;;;;;;16.57;12.17;;;;;;;;;;5054543;28;20215;-61
2020/12/07 02:55:00;;;;;;;15.00;12.00;;;;;;;;;;5054760;28;20265;-61
2020/12/07 02:57:26;;;;;;;16.43;12.10;;;;;;;;;;5053594;28;20944;-60
2020/12/07 02:59:51;;;;;;;13.83;11.70;;;;;;;;;;5054798;28;20432;-60
2020/12/07 03:02:17;;;;;;;15.00;11.50;;;;;;;;;;5053996;28;20446;-60
2020/12/07 03:04:42;;;;;;;14.83;12.80;;;;;;;;;;5054702;28;20229;-60
2020/12/07 03:07:07;;;;;;;14.47;11.47;;;;;;;;;;5054371;28;20228;-60
2020/12/07 03:09:33;;;;;;;15.77;12.60;;;;;;;;;;5054336;28;20211;-60
2020/12/07 03:11:58;;;;;;;16.37;12.90;;;;;;;;;;5057192;28;20214;-60
2020/12/07 03:14:24;;;;;;;13.00;11.60;;;;;;;;;;5057086;28;20392;-61
2020/12/07 03:16:50;;;;;;;13.07;11.67;;;;;;;;;;5058323;28;20228;-60
2020/12/07 03:19:15;;;;;;;14.07;11.33;;;;;;;;;;5058351;28;20987;-61
2020/12/07 03:21:41;;;;;;;19.13;11.83;;;;;;;;;;5058117;28;20459;-60
2020/12/07 03:24:06;;;;;;;13.07;11.63;;;;;;;;;;5045792;28;20220;-60
2020/12/07 03:26:33;;;;;;;13.70;12.07;;;;;;;;;;5038005;28;20211;-59
2020/12/07 03:28:58;;;;;;;15.43;12.83;;;;;;;;;;5038360;28;20294;-60
2020/12/07 03:31:24;;;;;;;16.20;13.10;;;;;;;;;;5043722;28;20458;-60
2020/12/07 03:33:49;;;;;;;17.37;13.63;;;;;;;;;;5058624;28;20429;-60
2020/12/07 03:36:15;;;;;;;16.37;13.10;;;;;;;;;;5058182;28;20226;-60
2020/12/07 03:38:40;;;;;;;13.87;12.47;;;;;;;;;;5057719;28;20307;-60
2020/12/07 03:41:05;;;;;;;14.00;11.33;;;;;;;;;;5058354;28;20223;-60
2020/12/07 03:43:30;;;;;;;14.23;11.40;;;;;;;;;;5057947;28;20709;-60
2020/12/07 03:45:56;;;;;;;14.07;11.90;;;;;;;;;;5058004;28;20342;-60
2020/12/07 03:48:21;;;;;;;13.83;11.97;;;;;;;;;;5057292;28;20525;-60
2020/12/07 03:50:46;;;;;;;15.97;12.60;;;;;;;;;;5057658;28;20315;-60
2020/12/07 03:53:11;;;;;;;13.33;11.93;;;;;;;;;;5057813;28;20224;-59
2020/12/07 03:55:37;;;;;;;15.07;13.47;;;;;;;;;;5057666;28;20224;-60
2020/12/07 03:58:02;;;;;;;17.53;12.30;;;;;;;;;;5057842;28;20228;-60
2020/12/07 04:00:27;;;;;;;16.63;12.60;;;;;;;;;;5057336;28;20286;-60
2020/12/07 04:02:54;;;;;;;13.37;11.43;;;;;;;;;;5057586;28;20240;-60
2020/12/07 04:05:29;;;;;;;16.77;12.13;;;;;;;;;;5057421;28;20224;-59
2020/12/07 04:07:54;;;;;;;14.47;12.30;;;;;;;;;;5040311;28;20463;-60
2020/12/07 04:10:20;;;;;;;13.53;10.73;;;;;;;;;;5037124;28;20848;-61
2020/12/07 04:12:45;;;;;;;16.03;12.90;;;;;;;;;;5037778;28;20225;-60
2020/12/07 04:15:10;;;;;;;15.43;12.10;;;;;;;;;;5037535;28;20711;-60
2020/12/07 04:17:36;;;;;;;17.67;12.17;;;;;;;;;;5037225;28;20248;-61
2020/12/07 04:20:01;;;;;;;16.13;11.57;;;;;;;;;;5037608;28;20319;-60
2020/12/07 04:22:26;;;;;;;17.57;12.40;;;;;;;;;;5036471;28;20227;-60
2020/12/07 04:24:51;;;;;;;13.60;12.00;;;;;;;;;;5056155;28;20226;-59
2020/12/07 04:27:17;;;;;;;14.17;10.27;;;;;;;;;;5057228;28;20305;-60
2020/12/07 04:29:42;;;;;;;14.47;11.63;;;;;;;;;;5056542;28;20519;-59
2020/12/07 04:32:07;;;;;;;13.93;12.53;;;;;;;;;;5057088;28;20220;-59
2020/12/07 04:34:33;;;;;;;16.17;12.07;;;;;;;;;;5056625;28;20245;-60
2020/12/07 04:36:58;;;;;;;16.53;12.83;;;;;;;;;;5057069;28;20645;-61
2020/12/07 04:39:23;;;;;;;14.70;12.10;;;;;;;;;;5056552;28;20306;-60
2020/12/07 04:41:49;;;;;;;13.70;11.40;;;;;;;;;;5056581;28;20343;-61
2020/12/07 04:44:15;;;;;;;16.30;12.47;;;;;;;;;;5056690;28;20219;-61
2020/12/07 04:46:40;;;;;;;14.90;11.83;;;;;;;;;;5056562;28;20618;-60
2020/12/07 04:49:06;;;;;;;15.03;12.13;;;;;;;;;;5057509;28;20650;-60
2020/12/07 04:51:32;;;;;;;14.90;12.07;;;;;;;;;;5056340;28;20309;-60
2020/12/07 04:53:57;;;;;;;13.50;11.87;;;;;;;;;;5055866;28;20284;-61
2020/12/07 04:56:22;;;;;;;17.10;12.97;;;;;;;;;;5055427;28;20438;-60
2020/12/07 04:58:48;;;;;;;14.93;12.50;;;;;;;;;;5056862;28;20303;-60
2020/12/07 05:01:13;;;;;;;16.47;13.17;;;;;;;;;;5056554;28;20225;-60
2020/12/07 05:03:38;;;;;;;12.40;10.90;;;;;;;;;;5056426;28;20357;-60
2020/12/07 05:06:04;;;;;;;15.53;13.40;;;;;;;;;;5054307;28;20222;-60
2020/12/07 05:08:31;;;;;;;16.63;12.27;;;;;;;;;;5035994;28;20288;-60
2020/12/07 05:11:00;;;;;;;14.90;12.40;;;;;;;;;;5036154;28;20442;-59
2020/12/07 05:13:34;;;;;;;16.13;11.50;;;;;;;;;;5035815;28;20441;-59
2020/12/07 05:15:59;;;;;;;15.53;12.90;;;;;;;;;;5036146;28;20433;-60
2020/12/07 05:18:25;;;;;;;13.27;11.80;;;;;;;;;;5036003;28;20543;-61
2020/12/07 05:20:50;;;;;;;14.50;13.00;;;;;;;;;;5035951;28;20582;-60
2020/12/07 05:23:16;;;;;;;16.10;13.07;;;;;;;;;;5041707;28;20227;-59
2020/12/07 05:25:45;;;;;;;16.80;11.73;;;;;;;;;;5055704;28;20215;-60
2020/12/07 05:28:12;;;;;;;15.80;11.93;;;;;;;;;;5056243;28;20526;-60
2020/12/07 05:30:41;;;;;;;13.50;12.07;;;;;;;;;;5055606;28;20470;-60
2020/12/07 05:33:07;;;;;;;16.00;12.73;;;;;;;;;;5033687;28;20521;-61
2020/12/07 05:35:38;;;;;;;15.50;12.80;;;;;;;;;;5035118;28;20440;-59
2020/12/07 05:38:05;;;;;;;15.13;13.10;;;;;;;;;;5038200;28;20215;-60
2020/12/07 05:40:30;;;;;;;14.47;11.97;;;;;;;;;;5041517;28;20436;-60
2020/12/07 05:42:57;;;;;;;17.67;13.63;;;;;;;;;;5051927;28;20900;-61
2020/12/07 05:45:24;;;;;;;16.13;12.70;;;;;;;;;;5054419;28;20259;-60
2020/12/07 05:47:51;;;;;;;21.90;13.07;;;;;;;;;;5035990;28;20428;-61
2020/12/07 05:50:17;;;;;;;14.00;11.90;;;;;;;;;;5035671;28;20432;-61
2020/12/07 05:52:53;;;;;;;15.27;11.80;;;;;;;;;;5034483;28;20461;-60
2020/12/07 05:55:20;;;;;;;13.33;11.43;;;;;;;;;;5048801;28;20426;-61
2020/12/07 05:57:56;;;;;;;15.13;12.40;;;;;;;;;;5055199;28;20935;-60
2020/12/07 06:00:22;;;;;;;15.07;12.10;;;;;;;;;;5055561;28;20904;-61
2020/12/07 06:02:50;;;;;;;13.97;12.23;;;;;;;;;;5055076;28;20787;-61
2020/12/07 06:05:15;;;;;;;17.70;13.30;;;;;;;;;;5055247;28;20426;-61
2020/12/07 06:07:43;;;;;;;16.80;13.70;;;;;;;;;;5054363;28;20469;-60
2020/12/07 06:10:09;;;;;;;17.47;13.27;;;;;;;;;;5054345;28;20221;-59
2020/12/07 06:12:38;;;;;;;16.47;12.43;;;;;;;;;;5038901;28;20829;-60
2020/12/07 06:15:04;;;;;;;14.10;12.07;;;;;;;;;;5034556;28;20220;-60
2020/12/07 06:17:32;;;;;;;15.30;13.27;;;;;;;;;;5033455;28;20472;-60
2020/12/07 06:19:58;;;;;;;13.60;12.17;;;;;;;;;;5035093;28;20219;-60
2020/12/07 06:22:23;;;;;;;14.87;11.70;;;;;;;;;;5035300;28;20536;-61
2020/12/07 06:24:54;;;;;;;17.03;14.20;;;;;;;;;;5053289;28;20724;-60
2020/12/07 06:27:19;;;;;;;14.30;12.20;;;;;;;;;;5055302;28;20219;-60
2020/12/07 06:29:59;;;;;;;14.93;13.20;;;;;;;;;;5054814;28;20514;-60
2020/12/07 06:32:47;;;;;;;17.00;13.30;;;;;;;;;;5054977;28;20221;-60
2020/12/07 06:35:12;;;;;;;13.97;12.47;;;;;;;;;;5053911;28;20994;-59
2020/12/07 06:37:42;;;;;;;16.50;12.47;;;;;;;;;;5055086;28;20482;-60
2020/12/07 06:40:08;;;;;;;18.90;14.57;;;;;;;;;;5054552;28;20621;-61
2020/12/07 06:42:38;;;;;;;16.93;13.30;;;;;;;;;;5054819;28;20532;-60
2020/12/07 06:45:04;;;;;;;17.73;14.20;;;;;;;;;;5056589;28;20221;-59
2020/12/07 06:47:29;;;;;;;18.53;13.03;;;;;;;;;;5058485;28;20941;-60
2020/12/07 06:50:01;;;;;;;14.57;12.10;;;;;;;;;;5059069;28;20217;-60
2020/12/07 06:52:28;;;;;;;20.13;14.90;;;;;;;;;;5058479;28;20241;-61
2020/12/07 06:55:09;;;;;;;18.30;13.23;;;;;;;;;;5059030;28;20910;-59
2020/12/07 06:57:45;;;;;;;13.60;11.90;;;;;;;;;;5058612;28;20779;-60
2020/12/07 07:00:11;;;;;;;14.97;13.33;;;;;;;;;;5057600;28;20783;-61
2020/12/07 07:02:40;;;;;;;15.27;12.70;;;;;;;;;;5059194;28;20458;-60
2020/12/07 07:05:07;;;;;;;18.83;14.70;;;;;;;;;;5059279;28;20243;-60
2020/12/07 07:07:32;;;;;;;15.70;13.00;;;;;;;;;;5058163;28;20444;-59
2020/12/07 07:09:59;;;;;;;17.10;13.93;;;;;;;;;;5058557;28;20475;-60
2020/12/07 07:12:24;;;;;;;18.60;13.50;;;;;;;;;;5058020;28;20226;-60
2020/12/07 07:14:55;;;;;;;18.70;13.27;;;;;;;;;;5057353;28;20521;-62
2020/12/07 07:17:21;;;;;;;15.70;13.00;;;;;;;;;;5057970;28;20467;-62
2020/12/07 07:19:47;;;;;;;15.93;13.03;;;;;;;;;;5058622;28;20439;-62
2020/12/07 07:22:12;;;;;;;15.37;13.60;;;;;;;;;;5058322;28;20494;-62
2020/12/07 07:24:46;;;;;;;17.60;14.63;;;;;;;;;;5058468;28;20222;-61
2020/12/07 07:29:56;;;;;;;16.90;13.27;;;;;;;;;;5057409;28;20492;-62
2020/12/07 07:32:22;;;;;;;15.57;12.90;;;;;;;;;;5057836;28;20939;-62
2020/12/07 07:34:48;;;;;;;16.13;13.60;;;;;;;;;;5054378;28;20493;-61
2020/12/07 07:37:15;;;;;;;15.50;11.67;;;;;;;;;;5051394;28;20275;-62
2020/12/07 07:39:40;;;;;;;16.63;14.10;;;;;;;;;;5041759;28;20522;-61
2020/12/07 07:42:11;;;;;;;16.83;13.40;;;;;;;;;;5038820;28;20447;-62
2020/12/07 07:44:38;;;;;;;16.10;12.33;;;;;;;;;;5057458;28;20460;-62
2020/12/07 07:47:07;;;;;;;15.57;12.77;;;;;;;;;;5057031;28;20566;-62
2020/12/07 07:49:52;;;;;;;17.07;13.43;;;;;;;;;;5057357;28;20438;-61
2020/12/07 08:01:46;;;;;;;16.83;12.50;;;;;;;;;;5037524;28;20716;-61
2020/12/07 08:07:11;;;;;;;16.07;13.50;;;;;;;;;;5036898;28;20463;-62
2020/12/07 08:17:53;;;;;;;14.90;12.50;;;;;;;;;;5056325;28;20525;-61
2020/12/07 08:20:20;;;;;;;14.80;12.37;;;;;;;;;;5057605;28;20447;-61
2020/12/07 08:23:04;;;;;;;15.33;13.30;;;;;;;;;;5055135;28;20529;-62
2020/12/07 08:25:51;;;;;;;16.70;11.20;;;;;;;;;;5037388;28;20542;-62
2020/12/07 08:28:22;;;;;;;15.10;11.50;;;;;;;;;;5037556;28;20907;-62
2020/12/07 08:31:06;;;;;;;17.23;12.80;;;;;;;;;;5065512;28;20426;-61
2020/12/07 08:33:59;;;;;;;20.40;13.30;;;;;;;;;;5056251;28;20438;-61
2020/12/07 08:36:26;;;;;;;15.77;13.10;;;;;;;;;;5055831;28;20476;-62
2020/12/07 08:38:52;;;;;;;13.60;12.20;;;;;;;;;;5073186;28;20483;-62
2020/12/07 08:41:19;;;;;;;16.00;12.57;;;;;;;;;;5076595;28;20548;-62
2020/12/07 08:43:49;;;;;;;20.40;12.67;;;;;;;;;;5059392;28;20227;-61
2020/12/07 08:46:18;;;;;;;16.23;12.00;;;;;;;;;;5060122;28;20800;-62
2020/12/07 08:48:43;;;;;;;17.60;12.47;;;;;;;;;;5076657;28;20459;-62
2020/12/07 08:51:09;;;;;;;15.23;13.73;;;;;;;;;;5076447;28;20446;-62
2020/12/07 08:53:36;;;;;;;14.70;12.60;;;;;;;;;;5076094;28;20608;-62
2020/12/07 08:56:05;;;;;;;17.50;13.53;;;;;;;;;;5076800;28;20670;-63
2020/12/07 08:58:31;;;;;;;14.00;12.60;;;;;;;;;;5076471;28;20471;-62
2020/12/07 09:00:58;;;;;;;13.93;11.70;;;;;;;;;;5076202;28;20432;-62
2020/12/07 09:03:24;;;;;;;15.83;12.80;;;;;;;;;;5068181;28;20230;-61
2020/12/07 09:05:49;;;;;;;16.43;13.83;;;;;;;;;;5056070;28;20443;-62
2020/12/07 09:08:14;;;;;;;16.97;13.27;;;;;;;;;;5055302;28;20276;-61
2020/12/07 09:10:40;;;;;;;16.30;11.90;;;;;;;;;;5055515;28;20561;-63
2020/12/07 09:13:05;;;;;;;14.03;12.30;;;;;;;;;;5055710;28;20267;-63
2020/12/07 09:15:31;;;;;;;17.13;13.47;;;;;;;;;;5056025;28;20658;-62
2020/12/07 09:17:56;;;;;;;13.73;12.17;;;;;;;;;;5056422;28;20238;-63
2020/12/07 09:20:22;;;;;;;15.03;12.70;;;;;;;;;;5056408;28;20463;-62
2020/12/07 09:22:47;;;;;;;14.07;11.83;;;;;;;;;;5055238;28;20315;-62
2020/12/07 09:25:12;;;;;;;13.13;11.67;;;;;;;;;;5055421;28;20231;-62
2020/12/07 09:27:37;;;;;;;15.63;13.77;;;;;;;;;;5055193;28;20238;-62
2020/12/07 09:30:03;;;;;;;16.27;13.17;;;;;;;;;;5055966;28;20224;-62
2020/12/07 09:32:29;;;;;;;16.63;13.60;;;;;;;;;;5055265;28;20268;-63
2020/12/07 09:34:55;;;;;;;15.00;12.80;;;;;;;;;;5056258;28;20427;-62
2020/12/07 09:37:20;;;;;;;14.67;12.03;;;;;;;;;;5062223;28;20216;-61
2020/12/07 09:39:45;;;;;;;15.30;12.60;;;;;;;;;;5074284;28;20435;-62
2020/12/07 09:42:11;;;;;;;15.40;13.10;;;;;;;;;;5075735;28;20716;-62
2020/12/07 09:44:36;;;;;;;15.00;12.70;;;;;;;;;;5075299;28;20224;-62
2020/12/07 09:47:01;;;;;;;16.73;14.17;;;;;;;;;;5058028;28;20217;-62
2020/12/07 09:49:26;;;;;;;16.70;14.27;;;;;;;;;;5055089;28;20299;-62
2020/12/07 09:51:52;;;;;;;15.30;13.13;;;;;;;;;;5054790;28;20278;-62
2020/12/07 09:54:17;;;;;;;16.00;13.10;;;;;;;;;;5055600;28;20258;-61
2020/12/07 09:56:42;;;;;;;15.67;13.40;;;;;;;;;;5054583;28;20251;-61
2020/12/07 09:59:08;;;;;;;16.77;13.63;;;;;;;;;;5055241;28;20299;-63
2020/12/07 10:01:33;;;;;;;14.83;11.80;;;;;;;;;;5055075;28;20284;-62
2020/12/07 10:03:58;;;;;;;17.40;13.27;;;;;;;;;;5055180;28;20305;-62
2020/12/07 10:06:23;;;;;;;16.80;12.43;;;;;;;;;;5053902;28;20218;-62
2020/12/07 10:08:49;;;;;;;14.47;12.13;;;;;;;;;;5054957;28;20578;-62
2020/12/07 10:11:14;;;;;;;15.63;12.97;;;;;;;;;;5054604;28;20216;-62
2020/12/07 10:13:40;;;;;;;17.10;13.57;;;;;;;;;;5054750;28;20219;-62
2020/12/07 10:16:05;;;;;;;15.40;11.90;;;;;;;;;;5054664;28;20236;-62
2020/12/07 10:18:30;;;;;;;15.37;12.57;;;;;;;;;;5054901;28;20815;-63
2020/12/07 10:20:56;;;;;;;14.67;12.50;;;;;;;;;;5054595;28;20238;-62
2020/12/07 10:23:22;;;;;;;16.27;13.40;;;;;;;;;;5054762;28;20702;-61
2020/12/07 10:25:50;;;;;;;13.97;12.13;;;;;;;;;;5054524;28;20222;-62
2020/12/07 10:28:16;;;;;;;17.57;12.97;;;;;;;;;;5054966;28;20992;-63
2020/12/07 10:30:41;;;;;;;14.50;12.03;;;;;;;;;;5054575;28;20533;-63
2020/12/07 10:33:06;;;;;;;15.00;13.10;;;;;;;;;;5054778;28;20336;-62
2020/12/07 10:35:32;;;;;;;15.13;13.37;;;;;;;;;;5054382;28;20562;-61
2020/12/07 10:37:57;;;;;;;13.87;12.00;;;;;;;;;;5066072;28;20281;-61
2020/12/07 10:40:22;;;;;;;15.50;12.60;;;;;;;;;;5074594;28;20575;-61
2020/12/07 10:42:48;;;;;;;15.73;12.47;;;;;;;;;;5074569;28;20306;-63
2020/12/07 10:45:13;;;;;;;16.47;13.97;;;;;;;;;;5063114;28;20325;-63
2020/12/07 10:47:38;;;;;;;18.70;13.90;;;;;;;;;;5054165;28;20219;-63
2020/12/07 10:50:03;;;;;;;16.13;13.13;;;;;;;;;;5054999;28;20305;-62
2020/12/07 10:52:28;;;;;;;14.70;12.03;;;;;;;;;;5054447;28;20217;-63
2020/12/07 10:54:54;;;;;;;14.17;11.17;;;;;;;;;;5054183;28;20584;-62
2020/12/07 10:57:19;;;;;;;16.87;13.80;;;;;;;;;;5053329;28;20215;-63
2020/12/07 10:59:44;;;;;;;17.13;12.80;;;;;;;;;;5054048;28;20278;-63
2020/12/07 11:02:10;;;;;;;14.13;12.70;;;;;;;;;;5054420;28;20256;-63
2020/12/07 11:04:35;;;;;;;15.80;12.60;;;;;;;;;;5054349;28;20298;-62
2020/12/07 11:07:02;;;;;;;16.77;13.60;;;;;;;;;;5054203;28;20299;-62
2020/12/07 11:09:27;;;;;;;13.13;11.30;;;;;;;;;;5053823;28;20219;-62
2020/12/07 11:12:01;;;;;;;18.50;12.57;;;;;;;;;;5053592;28;20960;-62
2020/12/07 11:14:26;;;;;;;15.77;12.40;;;;;;;;;;5054131;28;20218;-62
2020/12/07 11:16:51;;;;;;;14.37;12.70;;;;;;;;;;5053492;28;20474;-62
2020/12/07 11:19:17;;;;;;;15.97;13.80;;;;;;;;;;5054469;28;20273;-63
2020/12/07 11:21:44;;;;;;;17.07;12.67;;;;;;;;;;5054029;28;20310;-62
2020/12/07 11:24:09;;;;;;;16.67;12.40;;;;;;;;;;5053137;28;20228;-62
2020/12/07 11:26:35;;;;;;;17.17;14.20;;;;;;;;;;5053927;28;20470;-62
2020/12/07 11:29:00;;;;;;;18.70;14.67;;;;;;;;;;5054007;28;20216;-61
2020/12/07 11:31:25;;;;;;;18.23;13.10;;;;;;;;;;5054090;28;20655;-62
2020/12/07 11:33:50;;;;;;;14.77;12.10;;;;;;;;;;5056993;28;20237;-61
2020/12/07 11:36:16;;;;;;;14.90;13.27;;;;;;;;;;5058099;28;20228;-62
2020/12/07 11:44:11;;;;;;;16.10;12.10;;;;;;;;;;5077008;28;20978;-62
2020/12/07 11:46:40;;;;;;;13.40;12.00;;;;;;;;;;5062786;28;20231;-63
2020/12/07 11:49:06;;;;;;;18.37;14.30;;;;;;;;;;5057499;28;20464;-62
2020/12/07 11:51:32;;;;;;;17.13;13.20;;;;;;;;;;5057500;28;20812;-62
2020/12/07 11:53:57;;;;;;;18.03;13.50;;;;;;;;;;5056775;28;20220;-63
2020/12/07 11:56:30;;;;;;;15.53;13.60;;;;;;;;;;5055989;28;20660;-63
2020/12/07 11:58:55;;;;;;;16.13;13.33;;;;;;;;;;5056461;28;20231;-62
2020/12/07 12:01:20;;;;;;;14.17;12.40;;;;;;;;;;5056836;28;20438;-63
2020/12/07 12:03:46;;;;;;;17.60;14.00;;;;;;;;;;5055344;28;20226;-62
2020/12/07 12:06:27;;;;;;;15.07;12.30;;;;;;;;;;5056976;28;20217;-62
2020/12/07 12:08:55;;;;;;;20.30;13.40;;;;;;;;;;5055326;28;20250;-61
2020/12/07 12:11:26;;;;;;;19.67;14.77;;;;;;;;;;5056828;28;20804;-61
2020/12/07 12:13:52;;;;;;;16.87;13.20;;;;;;;;;;5055924;28;20493;-63
2020/12/07 12:16:18;;;;;;;17.30;14.53;;;;;;;;;;5056587;28;20563;-63
2020/12/07 12:18:43;;;;;;;13.93;12.50;;;;;;;;;;5056097;28;20302;-62
2020/12/07 12:21:08;;;;;;;17.60;13.50;;;;;;;;;;5056554;28;20246;-62
2020/12/07 12:23:33;;;;;;;17.50;14.37;;;;;;;;;;5056511;28;20268;-62
2020/12/07 12:25:59;;;;;;;17.03;13.00;;;;;;;;;;5056069;28;20222;-62
2020/12/07 12:28:24;;;;;;;18.13;14.00;;;;;;;;;;5056845;28;20628;-61
2020/12/07 12:30:49;;;;;;;16.10;13.00;;;;;;;;;;5055930;28;20228;-62
2020/12/07 12:33:15;;;;;;;16.80;13.50;;;;;;;;;;5056229;28;20534;-62
2020/12/07 12:35:40;;;;;;;19.80;12.40;;;;;;;;;;5055466;28;20359;-62
2020/12/07 12:38:05;;;;;;;18.03;13.33;;;;;;;;;;5068645;28;20644;-62
2020/12/07 12:40:31;;;;;;;16.47;14.70;;;;;;;;;;5076264;28;20299;-62
2020/12/07 12:42:56;;;;;;;16.27;13.57;;;;;;;;;;5075342;28;20607;-62
2020/12/07 12:45:21;;;;;;;16.40;13.87;;;;;;;;;;5072392;28;20217;-62
2020/12/07 12:47:47;;;;;;;17.80;13.47;;;;;;;;;;5055598;28;20303;-62
2020/12/07 12:50:12;;;;;;;17.67;14.17;;;;;;;;;;5056176;28;20552;-62
2020/12/07 12:52:38;;;;;;;17.63;14.70;;;;;;;;;;5055922;28;20232;-62
2020/12/07 12:55:04;;;;;;;16.10;13.80;;;;;;;;;;5055431;28;20661;-63
2020/12/07 12:57:29;;;;;;;20.63;16.07;;;;;;;;;;5055890;28;20475;-62
2020/12/07 12:59:54;;;;;;;23.27;16.17;;;;;;;;;;5055363;28;20546;-63
2020/12/07 13:02:19;;;;;;;17.73;14.70;;;;;;;;;;5055844;28;20331;-62
2020/12/07 13:04:45;;;;;;;19.50;15.10;;;;;;;;;;5055538;28;20671;-62
2020/12/07 13:07:10;;;;;;;15.20;13.60;;;;;;;;;;5055518;28;20219;-62
2020/12/07 13:09:35;;;;;;;20.07;15.87;;;;;;;;;;5055903;28;20308;-63
2020/12/07 13:12:00;;;;;;;16.10;14.40;;;;;;;;;;5055225;28;20629;-62
2020/12/07 13:14:26;;;;;;;16.83;13.40;;;;;;;;;;5055587;28;20296;-62
2020/12/07 13:17:03;;;;;;;16.33;14.60;;;;;;;;;;5054911;28;20327;-62
2020/12/07 13:19:29;;;;;;;17.47;15.43;;;;;;;;;;5055288;28;20212;-62
2020/12/07 13:22:05;;;;;;;15.97;14.17;;;;;;;;;;5054650;28;20800;-62
2020/12/07 13:24:45;;;;;;;20.37;15.03;;;;;;;;;;5055342;28;20555;-63
2020/12/07 13:27:20;;;;;;;18.10;14.47;;;;;;;;;;5054838;28;21295;-62
2020/12/07 13:29:45;;;;;;;17.83;14.67;;;;;;;;;;5054747;28;20459;-63
2020/12/07 13:32:11;;;;;;;16.67;14.97;;;;;;;;;;5054477;28;20807;-62
2020/12/07 13:34:36;;;;;;;16.97;14.73;;;;;;;;;;5054062;28;20240;-63
2020/12/07 13:37:01;;;;;;;20.37;15.30;;;;;;;;;;5058100;28;20656;-63
2020/12/07 13:39:27;;;;;;;19.90;14.87;;;;;;;;;;5074897;28;20253;-62
2020/12/07 13:41:52;;;;;;;15.70;13.43;;;;;;;;;;5074302;28;20303;-62
2020/12/07 13:44:17;;;;;;;16.97;14.67;;;;;;;;;;5074923;28;20220;-63
2020/12/07 13:46:42;;;;;;;16.93;13.30;;;;;;;;;;5059997;28;20360;-62
2020/12/07 13:49:08;;;;;;;20.07;15.30;;;;;;;;;;5054633;28;20528;-63
2020/12/07 13:51:33;;;;;;;17.30;15.50;;;;;;;;;;5054542;28;20226;-62
2020/12/07 13:53:59;;;;;;;22.13;15.70;;;;;;;;;;5053769;28;20528;-64
2020/12/07 13:56:24;;;;;;;19.50;14.60;;;;;;;;;;5054439;28;20632;-62
2020/12/07 13:58:50;;;;;;;15.00;13.40;;;;;;;;;;5054296;28;20221;-63
2020/12/07 14:01:16;;;;;;;15.23;13.70;;;;;;;;;;5054475;28;20231;-62
2020/12/07 14:03:53;;;;;;;18.77;13.70;;;;;;;;;;5054432;28;20598;-63
2020/12/07 14:06:26;;;;;;;16.70;12.00;;;;;;;;;;5054141;28;20216;-62
2020/12/07 14:08:51;;;;;;;17.30;12.63;;;;;;;;;;5054382;28;20464;-62
2020/12/07 14:11:17;;;;;;;14.13;10.23;;;;;;;;;;5053970;28;20460;-63
2020/12/07 14:13:42;;;;;;;15.77;11.63;;;;;;;;;;5054423;28;20286;-63
2020/12/07 14:16:08;;;;;;;11.20;9.90;;;;;;;;;;5052552;28;21020;-63
2020/12/07 14:18:38;;;;;;;11.13;9.20;;;;;;;;;;5054087;28;20215;-63
2020/12/07 14:21:11;;;;;;;11.40;9.00;;;;;;;;;;5052539;28;20726;-63
2020/12/07 14:23:55;;;;;;;9.93;8.90;;;;;;;;;;5054267;28;20506;-62
2020/12/07 14:26:24;;;;;;;8.93;7.40;;;;;;;;;;5054174;28;20803;-62
2020/12/07 14:31:35;;;;;;;9.53;8.10;;;;;;;;;;5053730;28;20466;-62
2020/12/07 14:39:45;;;;;;;13.53;7.40;;;;;;;;;;5073770;28;20486;-63
2020/12/07 14:42:11;;;;;;;9.17;7.03;;;;;;;;;;5073164;28;20493;-63
2020/12/07 14:44:43;;;;;;;9.00;8.10;;;;;;;;;;5074059;28;20532;-63
2020/12/07 14:47:08;;;;;;;8.33;7.20;;;;;;;;;;5055458;28;20306;-63
2020/12/07 14:49:33;;;;;;;7.40;6.70;;;;;;;;;;5054221;28;20811;-63
2020/12/07 14:52:05;;;;;;;8.83;7.97;;;;;;;;;;5054017;28;20314;-63
2020/12/07 14:54:36;;;;;;;11.07;8.67;;;;;;;;;;5053871;28;20228;-63